sensor_id;sensor_type;location;lat;lon;timestamp;temperature;humidity
3602;DHT22;1815;50.950;6.920;2022-11-20T00:03:37;6.60;99.90
3602;DHT22;1815;50.950;6.920;2022-11-20T00:06:09;6.60;99.90
3602;DHT22;1815;50.950;6.920;2022-11-20T00:08:35;6.50;99.90
3602;DHT22;1815;50.950;6.920;2022-11-20T00:13:31;6.60;99.90
3602;DHT22;1815;50.950;6.920;2022-11-20T00:15:59;6.60;99.90
3602;DHT22;1815;50.950;6.920;2022-11-20T00:18:25;6.60;99.90
3602;DHT22;1815;50.950;6.920;2022-11-20T00:20:51;6.70;99.90
3602;DHT22;1815;50.950;6.920;2022-11-20T00:23:16;6.70;99.90
3602;DHT22;1815;50.950;6.920;2022-11-20T00:25:42;6.70;99.90
3602;DHT22;1815;50.950;6.920;2022-11-20T00:28:08;6.70;99.90
3602;DHT22;1815;50.950;6.920;2022-11-20T00:30:34;6.70;99.90
3602;DHT22;1815;50.950;6.920;2022-11-20T00:32:59;6.70;99.90
3602;DHT22;1815;50.950;6.920;2022-11-20T00:35:25;6.70;99.90
3602;DHT22;1815;50.950;6.920;2022-11-20T00:37:51;6.70;99.90
3602;DHT22;1815;50.950;6.920;2022-11-20T00:40:17;6.80;99.90
3602;DHT22;1815;50.950;6.920;2022-11-20T00:42:42;6.70;99.90
3602;DHT22;1815;50.950;6.920;2022-11-20T00:45:08;6.70;99.90
3602;DHT22;1815;50.950;6.920;2022-11-20T00:47:34;6.70;99.90
3602;DHT22;1815;50.950;6.920;2022-11-20T00:50:00;6.70;99.90
3602;DHT22;1815;50.950;6.920;2022-11-20T00:52:26;6.70;99.90
3602;DHT22;1815;50.950;6.920;2022-11-20T00:54:52;6.70;99.90
3602;DHT22;1815;50.950;6.920;2022-11-20T00:57:18;6.70;99.90
3602;DHT22;1815;50.950;6.920;2022-11-20T00:59:43;6.60;99.90
3602;DHT22;1815;50.950;6.920;2022-11-20T01:02:09;6.60;99.90
3602;DHT22;1815;50.950;6.920;2022-11-20T01:04:35;6.60;99.90
3602;DHT22;1815;50.950;6.920;2022-11-20T01:07:01;6.60;99.90
3602;DHT22;1815;50.950;6.920;2022-11-20T01:09:26;6.50;99.90
3602;DHT22;1815;50.950;6.920;2022-11-20T01:11:52;6.60;99.90
3602;DHT22;1815;50.950;6.920;2022-11-20T01:14:19;6.60;99.90
3602;DHT22;1815;50.950;6.920;2022-11-20T01:16:48;6.60;99.90
3602;DHT22;1815;50.950;6.920;2022-11-20T01:19:16;6.70;99.90
3602;DHT22;1815;50.950;6.920;2022-11-20T01:21:43;6.60;99.90
3602;DHT22;1815;50.950;6.920;2022-11-20T01:24:14;6.60;99.90
3602;DHT22;1815;50.950;6.920;2022-11-20T01:26:42;6.60;99.90
3602;DHT22;1815;50.950;6.920;2022-11-20T01:29:18;6.60;99.90
3602;DHT22;1815;50.950;6.920;2022-11-20T01:31:44;6.60;99.90
3602;DHT22;1815;50.950;6.920;2022-11-20T01:34:13;6.70;99.90
3602;DHT22;1815;50.950;6.920;2022-11-20T01:36:40;6.70;99.90
3602;DHT22;1815;50.950;6.920;2022-11-20T01:39:11;6.70;99.90
3602;DHT22;1815;50.950;6.920;2022-11-20T01:41:37;6.70;99.90
3602;DHT22;1815;50.950;6.920;2022-11-20T01:47:09;6.70;99.90
3602;DHT22;1815;50.950;6.920;2022-11-20T01:49:40;6.70;99.90
3602;DHT22;1815;50.950;6.920;2022-11-20T01:52:16;6.60;99.90
3602;DHT22;1815;50.950;6.920;2022-11-20T01:54:51;6.60;99.90
3602;DHT22;1815;50.950;6.920;2022-11-20T01:57:20;6.60;99.90
3602;DHT22;1815;50.950;6.920;2022-11-20T01:59:55;6.60;99.90
3602;DHT22;1815;50.950;6.920;2022-11-20T02:02:22;6.60;99.90
3602;DHT22;1815;50.950;6.920;2022-11-20T02:04:49;6.60;99.90
3602;DHT22;1815;50.950;6.920;2022-11-20T02:07:17;6.60;99.90
3602;DHT22;1815;50.950;6.920;2022-11-20T02:09:44;6.60;99.90
3602;DHT22;1815;50.950;6.920;2022-11-20T02:12:10;6.60;99.90
3602;DHT22;1815;50.950;6.920;2022-11-20T02:14:56;6.60;99.90
3602;DHT22;1815;50.950;6.920;2022-11-20T02:17:23;6.50;99.90
3602;DHT22;1815;50.950;6.920;2022-11-20T02:19:49;6.50;99.90
3602;DHT22;1815;50.950;6.920;2022-11-20T02:22:40;6.50;99.90
3602;DHT22;1815;50.950;6.920;2022-11-20T02:25:07;6.50;99.90
3602;DHT22;1815;50.950;6.920;2022-11-20T02:27:34;6.50;99.90
3602;DHT22;1815;50.950;6.920;2022-11-20T02:30:05;6.50;99.90
3602;DHT22;1815;50.950;6.920;2022-11-20T02:32:35;6.50;99.90
3602;DHT22;1815;50.950;6.920;2022-11-20T02:35:09;6.40;99.90
3602;DHT22;1815;50.950;6.920;2022-11-20T02:37:38;6.40;99.90
3602;DHT22;1815;50.950;6.920;2022-11-20T02:40:05;6.40;99.90
3602;DHT22;1815;50.950;6.920;2022-11-20T02:42:31;6.30;99.90
3602;DHT22;1815;50.950;6.920;2022-11-20T02:45:05;6.30;99.90
3602;DHT22;1815;50.950;6.920;2022-11-20T02:47:31;6.30;99.90
3602;DHT22;1815;50.950;6.920;2022-11-20T02:49:57;6.40;99.90
3602;DHT22;1815;50.950;6.920;2022-11-20T02:52:23;6.50;99.90
3602;DHT22;1815;50.950;6.920;2022-11-20T02:54:49;6.50;99.90
3602;DHT22;1815;50.950;6.920;2022-11-20T02:57:15;6.50;99.90
3602;DHT22;1815;50.950;6.920;2022-11-20T02:59:41;6.50;99.90
3602;DHT22;1815;50.950;6.920;2022-11-20T03:02:07;6.50;99.90
3602;DHT22;1815;50.950;6.920;2022-11-20T03:04:32;6.40;99.90
3602;DHT22;1815;50.950;6.920;2022-11-20T03:06:58;6.40;99.90
3602;DHT22;1815;50.950;6.920;2022-11-20T03:09:24;6.30;99.90
3602;DHT22;1815;50.950;6.920;2022-11-20T03:11:50;6.20;99.90
3602;DHT22;1815;50.950;6.920;2022-11-20T03:14:15;6.20;99.90
3602;DHT22;1815;50.950;6.920;2022-11-20T03:16:41;6.10;99.90
3602;DHT22;1815;50.950;6.920;2022-11-20T03:19:07;6.20;99.90
3602;DHT22;1815;50.950;6.920;2022-11-20T03:21:33;6.20;99.90
3602;DHT22;1815;50.950;6.920;2022-11-20T03:24:00;6.30;99.90
3602;DHT22;1815;50.950;6.920;2022-11-20T03:26:27;6.30;99.90
3602;DHT22;1815;50.950;6.920;2022-11-20T03:29:00;6.40;99.90
3602;DHT22;1815;50.950;6.920;2022-11-20T03:31:32;6.40;99.90
3602;DHT22;1815;50.950;6.920;2022-11-20T03:33:59;6.40;99.90
3602;DHT22;1815;50.950;6.920;2022-11-20T03:36:25;6.30;99.90
3602;DHT22;1815;50.950;6.920;2022-11-20T03:38:53;6.30;99.90
3602;DHT22;1815;50.950;6.920;2022-11-20T03:41:22;6.40;99.90
3602;DHT22;1815;50.950;6.920;2022-11-20T03:43:49;6.40;99.90
3602;DHT22;1815;50.950;6.920;2022-11-20T03:46:16;6.40;99.90
3602;DHT22;1815;50.950;6.920;2022-11-20T03:48:42;6.50;99.90
3602;DHT22;1815;50.950;6.920;2022-11-20T03:51:22;6.50;99.90
3602;DHT22;1815;50.950;6.920;2022-11-20T03:53:50;6.40;99.90
3602;DHT22;1815;50.950;6.920;2022-11-20T03:56:17;6.40;99.90
3602;DHT22;1815;50.950;6.920;2022-11-20T03:58:43;6.40;99.90
3602;DHT22;1815;50.950;6.920;2022-11-20T04:01:11;6.50;99.90
3602;DHT22;1815;50.950;6.920;2022-11-20T04:03:38;6.50;99.90
3602;DHT22;1815;50.950;6.920;2022-11-20T04:06:25;6.50;99.90
3602;DHT22;1815;50.950;6.920;2022-11-20T04:08:51;6.60;99.90
3602;DHT22;1815;50.950;6.920;2022-11-20T04:11:21;6.60;99.90
3602;DHT22;1815;50.950;6.920;2022-11-20T04:13:55;6.60;99.90
3602;DHT22;1815;50.950;6.920;2022-11-20T04:16:22;6.50;99.90
3602;DHT22;1815;50.950;6.920;2022-11-20T04:18:52;6.40;99.90
3602;DHT22;1815;50.950;6.920;2022-11-20T04:21:18;6.30;99.90
3602;DHT22;1815;50.950;6.920;2022-11-20T04:23:44;6.30;99.90
3602;DHT22;1815;50.950;6.920;2022-11-20T04:26:11;6.20;99.90
3602;DHT22;1815;50.950;6.920;2022-11-20T04:28:38;6.10;99.90
3602;DHT22;1815;50.950;6.920;2022-11-20T04:31:12;6.00;99.90
3602;DHT22;1815;50.950;6.920;2022-11-20T04:33:38;5.90;99.90
3602;DHT22;1815;50.950;6.920;2022-11-20T04:38:38;5.90;99.90
3602;DHT22;1815;50.950;6.920;2022-11-20T04:41:08;5.90;99.90
3602;DHT22;1815;50.950;6.920;2022-11-20T04:43:35;5.90;99.90
3602;DHT22;1815;50.950;6.920;2022-11-20T04:46:01;5.90;99.90
3602;DHT22;1815;50.950;6.920;2022-11-20T04:48:28;5.90;99.90
3602;DHT22;1815;50.950;6.920;2022-11-20T04:50:54;5.90;99.90
3602;DHT22;1815;50.950;6.920;2022-11-20T04:53:21;6.00;99.90
3602;DHT22;1815;50.950;6.920;2022-11-20T04:55:47;6.00;99.90
3602;DHT22;1815;50.950;6.920;2022-11-20T04:58:14;6.00;99.90
3602;DHT22;1815;50.950;6.920;2022-11-20T05:00:39;6.10;99.90
3602;DHT22;1815;50.950;6.920;2022-11-20T05:03:05;6.10;99.90
3602;DHT22;1815;50.950;6.920;2022-11-20T05:05:33;6.20;99.90
3602;DHT22;1815;50.950;6.920;2022-11-20T05:08:00;6.20;99.90
3602;DHT22;1815;50.950;6.920;2022-11-20T05:10:28;6.30;99.90
3602;DHT22;1815;50.950;6.920;2022-11-20T05:13:04;6.30;99.90
3602;DHT22;1815;50.950;6.920;2022-11-20T05:15:46;6.40;99.90
3602;DHT22;1815;50.950;6.920;2022-11-20T05:18:11;6.40;99.90
3602;DHT22;1815;50.950;6.920;2022-11-20T05:20:37;6.50;99.90
3602;DHT22;1815;50.950;6.920;2022-11-20T05:23:03;6.50;99.90
3602;DHT22;1815;50.950;6.920;2022-11-20T05:25:28;6.60;99.90
3602;DHT22;1815;50.950;6.920;2022-11-20T05:27:54;6.60;99.90
3602;DHT22;1815;50.950;6.920;2022-11-20T05:30:20;6.60;99.90
3602;DHT22;1815;50.950;6.920;2022-11-20T05:32:45;6.70;99.90
3602;DHT22;1815;50.950;6.920;2022-11-20T05:35:11;6.70;99.90
3602;DHT22;1815;50.950;6.920;2022-11-20T05:37:37;6.70;99.90
3602;DHT22;1815;50.950;6.920;2022-11-20T05:40:03;6.80;99.90
3602;DHT22;1815;50.950;6.920;2022-11-20T05:42:32;6.80;99.90
3602;DHT22;1815;50.950;6.920;2022-11-20T05:44:58;6.80;99.90
3602;DHT22;1815;50.950;6.920;2022-11-20T05:47:25;6.90;99.90
3602;DHT22;1815;50.950;6.920;2022-11-20T05:49:51;6.90;99.90
3602;DHT22;1815;50.950;6.920;2022-11-20T05:52:17;6.90;99.90
3602;DHT22;1815;50.950;6.920;2022-11-20T05:54:43;6.90;99.90
3602;DHT22;1815;50.950;6.920;2022-11-20T05:57:08;6.90;99.90
3602;DHT22;1815;50.950;6.920;2022-11-20T05:59:34;6.90;99.90
3602;DHT22;1815;50.950;6.920;2022-11-20T06:02:00;6.90;99.90
3602;DHT22;1815;50.950;6.920;2022-11-20T06:04:26;6.80;99.90
3602;DHT22;1815;50.950;6.920;2022-11-20T06:06:52;6.80;99.90
3602;DHT22;1815;50.950;6.920;2022-11-20T06:09:18;6.80;99.90
3602;DHT22;1815;50.950;6.920;2022-11-20T06:11:43;6.90;99.90
3602;DHT22;1815;50.950;6.920;2022-11-20T06:14:09;6.90;99.90
3602;DHT22;1815;50.950;6.920;2022-11-20T06:16:35;6.90;99.90
3602;DHT22;1815;50.950;6.920;2022-11-20T06:19:01;6.90;99.90
3602;DHT22;1815;50.950;6.920;2022-11-20T06:21:26;6.90;99.90
3602;DHT22;1815;50.950;6.920;2022-11-20T06:23:53;6.90;99.90
3602;DHT22;1815;50.950;6.920;2022-11-20T06:26:24;6.90;99.90
3602;DHT22;1815;50.950;6.920;2022-11-20T06:28:52;6.90;99.90
3602;DHT22;1815;50.950;6.920;2022-11-20T06:31:20;6.90;99.90
3602;DHT22;1815;50.950;6.920;2022-11-20T06:33:47;6.90;99.90
3602;DHT22;1815;50.950;6.920;2022-11-20T06:36:15;6.90;99.90
3602;DHT22;1815;50.950;6.920;2022-11-20T06:38:42;6.90;99.90
3602;DHT22;1815;50.950;6.920;2022-11-20T06:41:13;6.90;99.90
3602;DHT22;1815;50.950;6.920;2022-11-20T06:43:39;6.90;99.90
3602;DHT22;1815;50.950;6.920;2022-11-20T06:46:05;6.90;99.90
3602;DHT22;1815;50.950;6.920;2022-11-20T06:48:31;6.90;99.90
3602;DHT22;1815;50.950;6.920;2022-11-20T06:50:57;6.90;99.90
3602;DHT22;1815;50.950;6.920;2022-11-20T06:53:24;6.90;99.90
3602;DHT22;1815;50.950;6.920;2022-11-20T06:55:51;7.00;99.90
3602;DHT22;1815;50.950;6.920;2022-11-20T06:58:17;6.90;99.90
3602;DHT22;1815;50.950;6.920;2022-11-20T07:00:43;7.00;99.90
3602;DHT22;1815;50.950;6.920;2022-11-20T07:03:11;7.00;99.90
3602;DHT22;1815;50.950;6.920;2022-11-20T07:05:37;7.00;99.90
3602;DHT22;1815;50.950;6.920;2022-11-20T07:08:04;7.00;99.90
3602;DHT22;1815;50.950;6.920;2022-11-20T07:10:30;7.00;99.90
3602;DHT22;1815;50.950;6.920;2022-11-20T07:12:56;7.00;99.90
3602;DHT22;1815;50.950;6.920;2022-11-20T07:15:24;7.10;99.90
3602;DHT22;1815;50.950;6.920;2022-11-20T07:17:50;7.10;99.90
3602;DHT22;1815;50.950;6.920;2022-11-20T07:20:16;7.10;99.90
3602;DHT22;1815;50.950;6.920;2022-11-20T07:22:44;7.10;99.90
3602;DHT22;1815;50.950;6.920;2022-11-20T07:25:10;7.10;99.90
3602;DHT22;1815;50.950;6.920;2022-11-20T07:27:36;7.10;99.90
3602;DHT22;1815;50.950;6.920;2022-11-20T07:30:03;7.20;99.90
3602;DHT22;1815;50.950;6.920;2022-11-20T07:32:28;7.20;99.90
3602;DHT22;1815;50.950;6.920;2022-11-20T07:34:54;7.20;99.90
3602;DHT22;1815;50.950;6.920;2022-11-20T07:37:20;7.20;99.90
3602;DHT22;1815;50.950;6.920;2022-11-20T07:39:47;7.30;99.90
3602;DHT22;1815;50.950;6.920;2022-11-20T07:42:28;7.30;99.90
3602;DHT22;1815;50.950;6.920;2022-11-20T07:44:55;7.30;99.90
3602;DHT22;1815;50.950;6.920;2022-11-20T07:47:21;7.40;99.90
3602;DHT22;1815;50.950;6.920;2022-11-20T07:49:47;7.40;99.90
3602;DHT22;1815;50.950;6.920;2022-11-20T07:52:12;7.40;99.90
3602;DHT22;1815;50.950;6.920;2022-11-20T07:54:38;7.40;99.90
3602;DHT22;1815;50.950;6.920;2022-11-20T07:57:04;7.50;99.90
3602;DHT22;1815;50.950;6.920;2022-11-20T07:59:30;7.50;99.90
3602;DHT22;1815;50.950;6.920;2022-11-20T08:01:55;7.50;99.90
3602;DHT22;1815;50.950;6.920;2022-11-20T08:04:21;7.60;99.90
3602;DHT22;1815;50.950;6.920;2022-11-20T08:06:49;7.60;99.90
3602;DHT22;1815;50.950;6.920;2022-11-20T08:09:14;7.60;99.90
3602;DHT22;1815;50.950;6.920;2022-11-20T08:11:40;7.60;99.90
3602;DHT22;1815;50.950;6.920;2022-11-20T08:14:24;7.60;99.90
3602;DHT22;1815;50.950;6.920;2022-11-20T08:16:50;7.60;99.90
3602;DHT22;1815;50.950;6.920;2022-11-20T08:19:18;7.60;99.90
3602;DHT22;1815;50.950;6.920;2022-11-20T08:21:44;7.60;99.90
3602;DHT22;1815;50.950;6.920;2022-11-20T08:24:10;7.60;99.90
3602;DHT22;1815;50.950;6.920;2022-11-20T08:26:37;7.70;99.90
3602;DHT22;1815;50.950;6.920;2022-11-20T08:29:06;7.80;99.90
3602;DHT22;1815;50.950;6.920;2022-11-20T08:31:32;7.80;99.90
3602;DHT22;1815;50.950;6.920;2022-11-20T08:33:57;7.90;99.90
3602;DHT22;1815;50.950;6.920;2022-11-20T08:36:24;7.90;99.90
3602;DHT22;1815;50.950;6.920;2022-11-20T08:38:52;7.90;99.90
3602;DHT22;1815;50.950;6.920;2022-11-20T08:41:18;8.00;99.90
3602;DHT22;1815;50.950;6.920;2022-11-20T08:43:53;8.00;99.90
3602;DHT22;1815;50.950;6.920;2022-11-20T08:46:19;8.10;99.90
3602;DHT22;1815;50.950;6.920;2022-11-20T08:48:45;8.20;99.90
3602;DHT22;1815;50.950;6.920;2022-11-20T08:51:12;8.20;99.90
3602;DHT22;1815;50.950;6.920;2022-11-20T08:53:38;8.20;99.90
3602;DHT22;1815;50.950;6.920;2022-11-20T08:56:05;8.20;99.90
3602;DHT22;1815;50.950;6.920;2022-11-20T08:58:31;8.20;99.90
3602;DHT22;1815;50.950;6.920;2022-11-20T09:00:56;8.30;99.90
3602;DHT22;1815;50.950;6.920;2022-11-20T09:03:25;8.40;99.90
3602;DHT22;1815;50.950;6.920;2022-11-20T09:06:00;8.40;99.90
3602;DHT22;1815;50.950;6.920;2022-11-20T09:08:27;8.50;99.90
3602;DHT22;1815;50.950;6.920;2022-11-20T09:10:55;8.50;99.90
3602;DHT22;1815;50.950;6.920;2022-11-20T09:13:22;8.50;99.90
3602;DHT22;1815;50.950;6.920;2022-11-20T09:15:59;8.60;99.90
3602;DHT22;1815;50.950;6.920;2022-11-20T09:18:26;8.60;99.90
3602;DHT22;1815;50.950;6.920;2022-11-20T09:20:56;8.70;99.90
3602;DHT22;1815;50.950;6.920;2022-11-20T09:23:23;8.70;99.90
3602;DHT22;1815;50.950;6.920;2022-11-20T09:25:48;8.60;99.90
3602;DHT22;1815;50.950;6.920;2022-11-20T09:28:14;8.60;99.90
3602;DHT22;1815;50.950;6.920;2022-11-20T09:30:40;8.70;99.90
3602;DHT22;1815;50.950;6.920;2022-11-20T09:33:06;8.80;99.90
3602;DHT22;1815;50.950;6.920;2022-11-20T09:35:32;8.90;99.90
3602;DHT22;1815;50.950;6.920;2022-11-20T09:37:58;9.10;99.90
3602;DHT22;1815;50.950;6.920;2022-11-20T09:40:27;9.10;99.90
3602;DHT22;1815;50.950;6.920;2022-11-20T09:51:10;9.40;99.90
3602;DHT22;1815;50.950;6.920;2022-11-20T09:53:58;9.50;99.90
3602;DHT22;1815;50.950;6.920;2022-11-20T09:56:28;9.70;99.90
3602;DHT22;1815;50.950;6.920;2022-11-20T09:58:57;9.80;99.90
3602;DHT22;1815;50.950;6.920;2022-11-20T10:01:29;9.90;99.90
3602;DHT22;1815;50.950;6.920;2022-11-20T10:04:12;9.90;99.90
3602;DHT22;1815;50.950;6.920;2022-11-20T10:09:35;9.80;99.90
3602;DHT22;1815;50.950;6.920;2022-11-20T10:30:09;9.40;99.90
3602;DHT22;1815;50.950;6.920;2022-11-20T10:32:39;9.40;99.90
3602;DHT22;1815;50.950;6.920;2022-11-20T10:35:25;9.40;99.90
3602;DHT22;1815;50.950;6.920;2022-11-20T10:37:58;9.40;99.90
3602;DHT22;1815;50.950;6.920;2022-11-20T10:42:55;9.30;99.90
3602;DHT22;1815;50.950;6.920;2022-11-20T10:48:00;9.20;99.90
3602;DHT22;1815;50.950;6.920;2022-11-20T10:50:36;9.10;99.90
3602;DHT22;1815;50.950;6.920;2022-11-20T10:53:54;9.10;99.90
3602;DHT22;1815;50.950;6.920;2022-11-20T10:56:05;9.00;99.90
3602;DHT22;1815;50.950;6.920;2022-11-20T10:58:52;8.90;99.90
3602;DHT22;1815;50.950;6.920;2022-11-20T11:01:21;8.70;99.90
3602;DHT22;1815;50.950;6.920;2022-11-20T11:03:53;8.70;99.90
3602;DHT22;1815;50.950;6.920;2022-11-20T11:09:04;8.60;99.90
3602;DHT22;1815;50.950;6.920;2022-11-20T11:11:33;8.50;99.90
3602;DHT22;1815;50.950;6.920;2022-11-20T11:14:14;8.50;99.90
3602;DHT22;1815;50.950;6.920;2022-11-20T11:16:57;8.40;99.90
3602;DHT22;1815;50.950;6.920;2022-11-20T11:19:23;8.30;99.90
3602;DHT22;1815;50.950;6.920;2022-11-20T11:21:53;8.30;99.90
3602;DHT22;1815;50.950;6.920;2022-11-20T11:24:25;8.40;99.90
3602;DHT22;1815;50.950;6.920;2022-11-20T11:26:57;8.40;99.90
3602;DHT22;1815;50.950;6.920;2022-11-20T11:29:31;8.50;99.90
3602;DHT22;1815;50.950;6.920;2022-11-20T11:32:10;8.50;99.90
3602;DHT22;1815;50.950;6.920;2022-11-20T11:34:37;8.50;99.90
3602;DHT22;1815;50.950;6.920;2022-11-20T11:37:03;8.50;99.90
3602;DHT22;1815;50.950;6.920;2022-11-20T11:39:31;8.50;99.90
3602;DHT22;1815;50.950;6.920;2022-11-20T11:42:00;8.50;99.90
3602;DHT22;1815;50.950;6.920;2022-11-20T11:44:36;8.50;99.90
3602;DHT22;1815;50.950;6.920;2022-11-20T11:49:49;8.60;99.90
3602;DHT22;1815;50.950;6.920;2022-11-20T11:52:25;8.70;99.90
3602;DHT22;1815;50.950;6.920;2022-11-20T11:54:55;8.70;99.90
3602;DHT22;1815;50.950;6.920;2022-11-20T11:57:51;8.70;99.90
3602;DHT22;1815;50.950;6.920;2022-11-20T12:00:21;8.70;99.90
3602;DHT22;1815;50.950;6.920;2022-11-20T12:03:11;8.70;99.90
3602;DHT22;1815;50.950;6.920;2022-11-20T12:05:45;8.60;99.90
3602;DHT22;1815;50.950;6.920;2022-11-20T12:08:32;8.60;99.90
3602;DHT22;1815;50.950;6.920;2022-11-20T12:16:18;8.50;99.90
3602;DHT22;1815;50.950;6.920;2022-11-20T12:18:47;8.60;99.90
3602;DHT22;1815;50.950;6.920;2022-11-20T12:37:27;8.70;99.90
3602;DHT22;1815;50.950;6.920;2022-11-20T12:39:58;8.70;99.90
3602;DHT22;1815;50.950;6.920;2022-11-20T12:43:01;8.70;99.90
3602;DHT22;1815;50.950;6.920;2022-11-20T12:45:54;8.70;99.90
3602;DHT22;1815;50.950;6.920;2022-11-20T12:56:49;8.70;99.90
3602;DHT22;1815;50.950;6.920;2022-11-20T13:01:51;8.80;99.90
3602;DHT22;1815;50.950;6.920;2022-11-20T13:06:50;8.80;99.90
3602;DHT22;1815;50.950;6.920;2022-11-20T13:09:19;8.80;99.90
3602;DHT22;1815;50.950;6.920;2022-11-20T13:19:54;8.80;99.90
3602;DHT22;1815;50.950;6.920;2022-11-20T13:22:29;8.80;99.90
3602;DHT22;1815;50.950;6.920;2022-11-20T13:24:55;8.70;99.90
3602;DHT22;1815;50.950;6.920;2022-11-20T13:27:24;8.80;99.90
3602;DHT22;1815;50.950;6.920;2022-11-20T13:30:17;8.80;99.90
3602;DHT22;1815;50.950;6.920;2022-11-20T13:32:53;8.80;99.90
3602;DHT22;1815;50.950;6.920;2022-11-20T13:35:31;8.90;99.90
3602;DHT22;1815;50.950;6.920;2022-11-20T13:38:09;9.10;99.90
3602;DHT22;1815;50.950;6.920;2022-11-20T13:40:54;9.10;99.90
3602;DHT22;1815;50.950;6.920;2022-11-20T13:46:06;9.10;99.90
3602;DHT22;1815;50.950;6.920;2022-11-20T13:48:38;9.00;99.90
3602;DHT22;1815;50.950;6.920;2022-11-20T13:57:01;9.00;99.90
3602;DHT22;1815;50.950;6.920;2022-11-20T14:02:22;8.90;99.90
3602;DHT22;1815;50.950;6.920;2022-11-20T14:04:54;8.90;99.90
3602;DHT22;1815;50.950;6.920;2022-11-20T14:07:23;8.90;99.90
3602;DHT22;1815;50.950;6.920;2022-11-20T14:09:51;8.90;99.90
3602;DHT22;1815;50.950;6.920;2022-11-20T14:12:21;8.90;99.90
3602;DHT22;1815;50.950;6.920;2022-11-20T14:14:50;8.90;99.90
3602;DHT22;1815;50.950;6.920;2022-11-20T14:17:30;8.90;99.90
3602;DHT22;1815;50.950;6.920;2022-11-20T14:20:11;8.80;99.90
3602;DHT22;1815;50.950;6.920;2022-11-20T14:22:38;8.80;99.90
3602;DHT22;1815;50.950;6.920;2022-11-20T14:27:47;8.80;99.90
3602;DHT22;1815;50.950;6.920;2022-11-20T14:30:29;8.90;99.90
3602;DHT22;1815;50.950;6.920;2022-11-20T14:33:02;8.90;99.90
3602;DHT22;1815;50.950;6.920;2022-11-20T14:35:33;8.90;99.90
3602;DHT22;1815;50.950;6.920;2022-11-20T14:38:01;8.80;99.90
3602;DHT22;1815;50.950;6.920;2022-11-20T14:40:33;8.90;99.90
3602;DHT22;1815;50.950;6.920;2022-11-20T14:43:01;8.90;99.90
3602;DHT22;1815;50.950;6.920;2022-11-20T14:45:30;8.90;99.90
3602;DHT22;1815;50.950;6.920;2022-11-20T14:47:57;8.90;99.90
3602;DHT22;1815;50.950;6.920;2022-11-20T14:50:28;9.00;99.90
3602;DHT22;1815;50.950;6.920;2022-11-20T14:52:55;9.00;99.90
3602;DHT22;1815;50.950;6.920;2022-11-20T14:55:30;9.00;99.90
3602;DHT22;1815;50.950;6.920;2022-11-20T14:57:59;8.90;99.90
3602;DHT22;1815;50.950;6.920;2022-11-20T15:00:25;9.00;99.90
3602;DHT22;1815;50.950;6.920;2022-11-20T15:02:52;8.90;99.90
3602;DHT22;1815;50.950;6.920;2022-11-20T15:05:24;8.90;99.90
3602;DHT22;1815;50.950;6.920;2022-11-20T15:08:05;8.80;99.90
3602;DHT22;1815;50.950;6.920;2022-11-20T15:10:31;8.80;99.90
3602;DHT22;1815;50.950;6.920;2022-11-20T15:13:03;8.80;99.90
3602;DHT22;1815;50.950;6.920;2022-11-20T15:15:35;8.80;99.90
3602;DHT22;1815;50.950;6.920;2022-11-20T15:18:02;8.80;99.90
3602;DHT22;1815;50.950;6.920;2022-11-20T15:20:31;8.80;99.90
3602;DHT22;1815;50.950;6.920;2022-11-20T15:22:57;8.80;99.90
3602;DHT22;1815;50.950;6.920;2022-11-20T15:25:23;8.80;99.90
3602;DHT22;1815;50.950;6.920;2022-11-20T15:27:56;8.80;99.90
3602;DHT22;1815;50.950;6.920;2022-11-20T15:30:23;8.70;99.90
3602;DHT22;1815;50.950;6.920;2022-11-20T15:32:49;8.60;99.90
3602;DHT22;1815;50.950;6.920;2022-11-20T15:35:15;8.60;99.90
3602;DHT22;1815;50.950;6.920;2022-11-20T15:37:41;8.50;99.90
3602;DHT22;1815;50.950;6.920;2022-11-20T15:40:08;8.40;99.90
3602;DHT22;1815;50.950;6.920;2022-11-20T15:42:35;8.30;99.90
3602;DHT22;1815;50.950;6.920;2022-11-20T15:45:01;8.20;99.90
3602;DHT22;1815;50.950;6.920;2022-11-20T15:47:32;8.20;99.90
3602;DHT22;1815;50.950;6.920;2022-11-20T15:49:59;8.10;99.90
3602;DHT22;1815;50.950;6.920;2022-11-20T15:52:25;8.10;99.90
3602;DHT22;1815;50.950;6.920;2022-11-20T15:54:51;8.10;99.90
3602;DHT22;1815;50.950;6.920;2022-11-20T15:57:16;8.10;99.90
3602;DHT22;1815;50.950;6.920;2022-11-20T15:59:42;8.10;99.90
3602;DHT22;1815;50.950;6.920;2022-11-20T16:02:12;8.10;99.90
3602;DHT22;1815;50.950;6.920;2022-11-20T16:04:38;8.10;99.90
3602;DHT22;1815;50.950;6.920;2022-11-20T16:07:04;8.10;99.90
3602;DHT22;1815;50.950;6.920;2022-11-20T16:09:30;8.20;99.90
3602;DHT22;1815;50.950;6.920;2022-11-20T16:11:56;8.20;99.90
3602;DHT22;1815;50.950;6.920;2022-11-20T16:14:25;8.20;99.90
3602;DHT22;1815;50.950;6.920;2022-11-20T16:17:09;8.30;99.90
3602;DHT22;1815;50.950;6.920;2022-11-20T16:19:35;8.30;99.90
3602;DHT22;1815;50.950;6.920;2022-11-20T16:22:01;8.30;99.90
3602;DHT22;1815;50.950;6.920;2022-11-20T16:24:27;8.30;99.90
3602;DHT22;1815;50.950;6.920;2022-11-20T16:26:54;8.40;99.90
3602;DHT22;1815;50.950;6.920;2022-11-20T16:29:20;8.40;99.90
3602;DHT22;1815;50.950;6.920;2022-11-20T16:31:46;8.40;99.90
3602;DHT22;1815;50.950;6.920;2022-11-20T16:34:12;8.40;99.90
3602;DHT22;1815;50.950;6.920;2022-11-20T16:36:41;8.40;99.90
3602;DHT22;1815;50.950;6.920;2022-11-20T16:39:07;8.40;99.90
3602;DHT22;1815;50.950;6.920;2022-11-20T16:41:33;8.40;99.90
3602;DHT22;1815;50.950;6.920;2022-11-20T16:44:02;8.40;99.90
3602;DHT22;1815;50.950;6.920;2022-11-20T16:46:31;8.40;99.90
3602;DHT22;1815;50.950;6.920;2022-11-20T16:48:59;8.40;99.90
3602;DHT22;1815;50.950;6.920;2022-11-20T16:51:28;8.50;99.90
3602;DHT22;1815;50.950;6.920;2022-11-20T16:53:54;8.50;99.90
3602;DHT22;1815;50.950;6.920;2022-11-20T16:56:23;8.50;99.90
3602;DHT22;1815;50.950;6.920;2022-11-20T16:58:49;8.50;99.90
3602;DHT22;1815;50.950;6.920;2022-11-20T17:01:17;8.40;99.90
3602;DHT22;1815;50.950;6.920;2022-11-20T17:03:46;8.40;99.90
3602;DHT22;1815;50.950;6.920;2022-11-20T17:06:14;8.40;99.90
3602;DHT22;1815;50.950;6.920;2022-11-20T17:08:40;8.50;99.90
3602;DHT22;1815;50.950;6.920;2022-11-20T17:11:07;8.50;99.90
3602;DHT22;1815;50.950;6.920;2022-11-20T17:13:34;8.50;99.90
3602;DHT22;1815;50.950;6.920;2022-11-20T17:16:02;8.50;99.90
3602;DHT22;1815;50.950;6.920;2022-11-20T17:18:28;8.50;99.90
3602;DHT22;1815;50.950;6.920;2022-11-20T17:20:56;8.50;99.90
3602;DHT22;1815;50.950;6.920;2022-11-20T17:23:22;8.50;99.90
3602;DHT22;1815;50.950;6.920;2022-11-20T17:25:48;8.50;99.90
3602;DHT22;1815;50.950;6.920;2022-11-20T17:28:14;8.50;99.90
3602;DHT22;1815;50.950;6.920;2022-11-20T17:30:40;8.50;99.90
3602;DHT22;1815;50.950;6.920;2022-11-20T17:33:06;8.50;99.90
3602;DHT22;1815;50.950;6.920;2022-11-20T17:35:35;8.50;99.90
3602;DHT22;1815;50.950;6.920;2022-11-20T17:38:01;8.50;99.90
3602;DHT22;1815;50.950;6.920;2022-11-20T17:40:27;8.40;99.90
3602;DHT22;1815;50.950;6.920;2022-11-20T17:42:53;8.40;99.90
3602;DHT22;1815;50.950;6.920;2022-11-20T17:45:19;8.40;99.90
3602;DHT22;1815;50.950;6.920;2022-11-20T17:47:45;8.40;99.90
3602;DHT22;1815;50.950;6.920;2022-11-20T17:50:11;8.40;99.90
3602;DHT22;1815;50.950;6.920;2022-11-20T17:52:37;8.40;99.90
3602;DHT22;1815;50.950;6.920;2022-11-20T17:55:03;8.30;99.90
3602;DHT22;1815;50.950;6.920;2022-11-20T17:57:29;8.30;99.90
3602;DHT22;1815;50.950;6.920;2022-11-20T18:00:14;8.30;99.90
3602;DHT22;1815;50.950;6.920;2022-11-20T18:02:41;8.20;99.90
3602;DHT22;1815;50.950;6.920;2022-11-20T18:05:07;8.20;99.90
3602;DHT22;1815;50.950;6.920;2022-11-20T18:07:34;8.20;99.90
3602;DHT22;1815;50.950;6.920;2022-11-20T18:10:00;8.20;99.90
3602;DHT22;1815;50.950;6.920;2022-11-20T18:12:26;8.30;99.90
3602;DHT22;1815;50.950;6.920;2022-11-20T18:14:52;8.30;99.90